Bannock, Ohio
Current Conditions -  °F | °C
As of 12:53 PM on Friday 28 Nov 2014 (Local Time) from KHLG Reporting Station
Overcast Overcast  
Wind Chill: 18°   Ceiling: 3600
Heat Index: 26°   Visibility: 10mi
Dew Point: 16°   Wind: 7mph
Humidity: 66%   Direction: 270°W
Pressure: 30.28"   Gusts: NA
Location:  40.1°N, 80.98°W
Report Text: KHLG 281753Z 27006KT 10SM SCT029 OVC036 M03/M09 A3028 RMK AO2 SLP273 T10331089 11033 21056 58018
Loading
Personal Weather Stations






























Interactive Weather Map New forecast layout! Learn more

10-Day Weather Forecast

Advertisements
Track Severe Weather on mobile